Eagle Vermont — S6HU9 — position and weather

sailwx.info

Track history (hours):
 
Tides and Currents Weather Stations Pressure Air Temp Water Temp Dewpoint Dewpoint Depression Visibility Wind Speed Wind Dir Waves Ship Positions

Eagle Vermont

Last reported at 2018-Feb-17 05:37 UTC. Time now 2018-Feb-22 12:47 UTC.
Position N 26°44' W 093°52'.

Length 333 m; draft 11 m.

Type: Tanker. MMSI: 564745000.

Date/timePositionNaut miles runAvg speedWind from/ knotsBaromVisibWave heightAir tempDewpointWater temp
2018-Feb-17 05:37N 26°44' W 093°52'1114.2
2018-Feb-17 04:50N 26°54' W 093°57'514.6
2018-Feb-17 04:29N 26°59' W 094°00'4913.9
2018-Feb-17 00:59N 27°42' W 094°24'3313.7
2018-Feb-16 22:34N 28°16' W 094°26'313.0
2018-Feb-16 22:20N 28°19' W 094°26'513.3
2018-Feb-16 21:56N 28°24' W 094°25'613.5
2018-Feb-16 21:30N 28°30' W 094°25'1510.6
2018-Feb-16 20:03N 28°41' W 094°37'1 6.0
2018-Feb-16 19:57N 28°41' W 094°38'1 0.7
2018-Feb-16 17:57N 28°42' W 094°39'0 0.0
2018-Feb-16 17:21N 28°42' W 094°39'0 0.0
2018-Feb-16 17:00N 28°42' W 094°39'0 0.0
2018-Feb-16 07:30N 28°42' W 094°39'0 0.0
2018-Feb-16 07:00N 28°42' W 094°39'0 0.0
2018-Feb-16 06:30N 28°42' W 094°39'0 0.0
2018-Feb-16 05:57N 28°42' W 094°39'0 0.0
2018-Feb-16 05:15N 28°42' W 094°39'0 0.0
2018-Feb-16 04:48N 28°42' W 094°39'0 0.0
2018-Feb-16 04:30N 28°42' W 094°39'0 0.0
2018-Feb-16 03:57N 28°42' W 094°39'0 0.0
2018-Feb-16 03:30N 28°42' W 094°39'0 0.0
2018-Feb-16 02:48N 28°42' W 094°39'0 0.0
2018-Feb-16 02:30N 28°42' W 094°39'0 0.0
2018-Feb-16 01:48N 28°42' W 094°39'0 0.0
2018-Feb-16 01:24N 28°42' W 094°39'0 0.0
2018-Feb-16 00:09N 28°42' W 094°39'0 0.0
2018-Feb-15 23:54N 28°42' W 094°39'0 0.0
2018-Feb-15 23:15N 28°42' W 094°39'0 0.0
2018-Feb-15 22:42N 28°42' W 094°39'0 0.1
2018-Feb-15 22:27N 28°42' W 094°39'0 0.0
2018-Feb-15 21:50N 28°42' W 094°39'0 0.6
2018-Feb-15 21:17N 28°42' W 094°39'0 1.1
2018-Feb-15 20:58N 28°42' W 094°38'1 1.1
2018-Feb-15 20:23N 28°41' W 094°38'1 1.3
2018-Feb-15 19:50N 28°41' W 094°37'1 1.3
2018-Feb-15 19:23N 28°41' W 094°36'0 1.0
2018-Feb-15 18:59N 28°40' W 094°36'1 0.0
2018-Feb-14 17:37N 28°39' W 094°36'3 2.1
2018-Feb-14 16:23N 28°41' W 094°34'3 4.9
2018-Feb-14 15:42N 28°43' W 094°31'1 3.9
2018-Feb-14 15:29N 28°44' W 094°31'1 1.5
2018-Feb-14 15:00N 28°44' W 094°30'1 0.8
2018-Feb-14 14:21N 28°45' W 094°30'  
Track history (hours):
 
Tides and Currents Weather Stations Pressure Air Temp Water Temp Dewpoint Dewpoint Depression Visibility Wind Speed Wind Dir Waves Ship Positions

Eagle Vermont

Last reported at 2018-Feb-17 05:37 UTC. Time now 2018-Feb-22 12:47 UTC.
Position N 26°44' W 093°52'.

Length 333 m; draft 11 m.

Type: Tanker. MMSI: 564745000.

Date/timePositionNaut miles runAvg speedWind from/ knotsBaromVisibWave heightAir tempDewpointWater temp
2018-Feb-17 05:37N 26°44' W 093°52'1114.2
2018-Feb-17 04:50N 26°54' W 093°57'514.6
2018-Feb-17 04:29N 26°59' W 094°00'4913.9
2018-Feb-17 00:59N 27°42' W 094°24'3313.7
2018-Feb-16 22:34N 28°16' W 094°26'313.0
2018-Feb-16 22:20N 28°19' W 094°26'513.3
2018-Feb-16 21:56N 28°24' W 094°25'613.5
2018-Feb-16 21:30N 28°30' W 094°25'1510.6
2018-Feb-16 20:03N 28°41' W 094°37'1 6.0
2018-Feb-16 19:57N 28°41' W 094°38'1 0.7
2018-Feb-16 17:57N 28°42' W 094°39'0 0.0
2018-Feb-16 17:21N 28°42' W 094°39'0 0.0
2018-Feb-16 17:00N 28°42' W 094°39'0 0.0
2018-Feb-16 07:30N 28°42' W 094°39'0 0.0
2018-Feb-16 07:00N 28°42' W 094°39'0 0.0
2018-Feb-16 06:30N 28°42' W 094°39'0 0.0
2018-Feb-16 05:57N 28°42' W 094°39'0 0.0
2018-Feb-16 05:15N 28°42' W 094°39'0 0.0
2018-Feb-16 04:48N 28°42' W 094°39'0 0.0
2018-Feb-16 04:30N 28°42' W 094°39'0 0.0
2018-Feb-16 03:57N 28°42' W 094°39'0 0.0
2018-Feb-16 03:30N 28°42' W 094°39'0 0.0
2018-Feb-16 02:48N 28°42' W 094°39'0 0.0
2018-Feb-16 02:30N 28°42' W 094°39'0 0.0
2018-Feb-16 01:48N 28°42' W 094°39'0 0.0
2018-Feb-16 01:24N 28°42' W 094°39'0 0.0
2018-Feb-16 00:09N 28°42' W 094°39'0 0.0
2018-Feb-15 23:54N 28°42' W 094°39'0 0.0
2018-Feb-15 23:15N 28°42' W 094°39'0 0.0
2018-Feb-15 22:42N 28°42' W 094°39'0 0.1
2018-Feb-15 22:27N 28°42' W 094°39'0 0.0
2018-Feb-15 21:50N 28°42' W 094°39'0 0.6
2018-Feb-15 21:17N 28°42' W 094°39'0 1.1
2018-Feb-15 20:58N 28°42' W 094°38'1 1.1
2018-Feb-15 20:23N 28°41' W 094°38'1 1.3
2018-Feb-15 19:50N 28°41' W 094°37'1 1.3
2018-Feb-15 19:23N 28°41' W 094°36'0 1.0
2018-Feb-15 18:59N 28°40' W 094°36'1 0.0
2018-Feb-14 17:37N 28°39' W 094°36'3 2.1
2018-Feb-14 16:23N 28°41' W 094°34'3 4.9
2018-Feb-14 15:42N 28°43' W 094°31'1 3.9
2018-Feb-14 15:29N 28°44' W 094°31'1 1.5
2018-Feb-14 15:00N 28°44' W 094°30'1 0.8
2018-Feb-14 14:21N 28°45' W 094°30'  

Dump ship's entire track history